Time;durP1;ratioP1;P1;durP2;ratioP2;P2;SDS_P1;SDS_P2;PMS_P1;PMS_P2;Temp;Humidity;BMP_temperature;BMP_pressure;BME280_temperature;BME280_humidity;BME280_pressure;Samples;Min_cycle;Max_cycle;Signal;HPM_P1;HPM_P2
2024/04/11 00:00:51;;;;;;;1.60;1.17;;;1.30;99.90;;;;;;8903049;26;20081;-86
2024/04/11 00:04:51;;;;;;;1.95;1.30;;;1.30;99.90;;;;;;8907685;26;20064;-86
2024/04/11 00:08:52;;;;;;;3.33;1.55;;;1.40;99.90;;;;;;8905427;26;20069;-85
2024/04/11 00:12:52;;;;;;;2.97;1.35;;;1.40;99.90;;;;;;8909516;26;20353;-86
2024/04/11 00:16:53;;;;;;;1.77;1.00;;;1.30;99.90;;;;;;8910379;26;20465;-85
2024/04/11 00:20:54;;;;;;;2.47;1.45;;;1.10;99.90;;;;;;8900317;26;20015;-85
2024/04/11 00:24:55;;;;;;;2.78;0.82;;;1.00;99.90;;;;;;8908531;26;20007;-85
2024/04/11 00:28:55;;;;;;;2.85;1.52;;;1.00;99.90;;;;;;8962525;21;22204;-83
2024/04/11 00:32:57;;;;;;;2.92;1.40;;;1.00;99.90;;;;;;8908959;26;20004;-83
2024/04/11 00:36:59;;;;;;;2.03;1.38;;;0.90;99.90;;;;;;8931421;26;20006;-83
2024/04/11 00:41:00;;;;;;;2.72;1.23;;;0.90;99.90;;;;;;8899219;26;21062;-82
2024/04/11 00:45:06;;;;;;;1.52;1.02;;;0.90;99.90;;;;;;8896774;26;20107;-84
2024/04/11 00:49:08;;;;;;;3.05;1.35;;;0.90;99.90;;;;;;8890517;26;20012;-83
2024/04/11 00:53:16;;;;;;;3.35;1.17;;;0.90;99.90;;;;;;8893177;26;20014;-84
2024/04/11 00:57:24;;;;;;;1.65;1.23;;;0.90;99.90;;;;;;8910232;26;20407;-84
2024/04/11 01:01:25;;;;;;;2.35;1.20;;;0.90;99.90;;;;;;8919001;26;20001;-83
2024/04/11 01:05:26;;;;;;;1.50;1.27;;;0.80;99.90;;;;;;8899501;26;20016;-84
2024/04/11 01:09:27;;;;;;;1.63;1.20;;;0.80;99.90;;;;;;8903830;26;20011;-83
2024/04/11 01:13:27;;;;;;;3.38;1.75;;;0.80;99.90;;;;;;8921191;26;20012;-83
2024/04/11 01:17:28;;;;;;;1.55;1.23;;;0.90;99.90;;;;;;8920571;26;20000;-83
2024/04/11 01:21:28;;;;;;;2.17;0.95;;;0.80;99.90;;;;;;8919550;26;20069;-84
2024/04/11 01:25:29;;;;;;;1.60;1.10;;;0.80;99.90;;;;;;8901017;26;20012;-84
2024/04/11 01:29:30;;;;;;;5.20;1.55;;;0.70;99.90;;;;;;8881892;26;20001;-84
2024/04/11 01:33:30;;;;;;;2.17;1.10;;;0.60;99.90;;;;;;8885006;26;20078;-83
2024/04/11 01:37:32;;;;;;;2.47;1.20;;;0.60;99.90;;;;;;8917864;26;19997;-84
2024/04/11 01:41:32;;;;;;;1.55;1.20;;;0.70;99.90;;;;;;8925811;26;20021;-83
2024/04/11 01:45:35;;;;;;;4.20;1.60;;;0.70;99.90;;;;;;8883683;26;20000;-84
2024/04/11 01:49:36;;;;;;;3.38;1.50;;;0.80;99.90;;;;;;8880947;26;20420;-83
2024/04/11 01:53:37;;;;;;;8.77;1.48;;;0.80;99.90;;;;;;8898822;26;20089;-83
2024/04/11 01:57:47;;;;;;;;;;;;;;;;;;;;;
2024/04/11 02:01:54;;;;;;;3.40;1.65;;;0.60;99.90;;;;;;8874358;26;20003;-83
2024/04/11 02:05:54;;;;;;;4.20;2.15;;;0.50;99.90;;;;;;8906858;26;20019;-84
2024/04/11 02:09:56;;;;;;;1.63;1.20;;;0.40;99.90;;;;;;8890503;26;20004;-83
2024/04/11 02:24:58;;;;;;;;;;;;;;;;;;;;;
2024/04/11 02:29:08;;;;;;;1.52;1.02;;;0.30;99.90;;;;;;8714418;27;20061;-83
2024/04/11 02:33:12;;;;;;;1.83;1.38;;;0.20;99.90;;;;;;8725254;27;20807;-83
2024/04/11 02:37:14;;;;;;;1.80;1.17;;;0.10;99.90;;;;;;8888046;26;20001;-83
2024/04/11 02:41:57;;;;;;;2.95;1.25;;;0.10;99.90;;;;;;8924066;26;20066;-83
2024/04/11 02:46:01;;;;;;;2.47;1.00;;;0.20;99.90;;;;;;8893171;26;20023;-84
2024/04/11 02:50:02;;;;;;;3.67;1.38;;;0.10;99.90;;;;;;8903738;26;20015;-83
2024/04/11 02:54:12;;;;;;;4.07;1.45;;;0.20;99.90;;;;;;8902263;26;20012;-83
2024/04/11 02:58:13;;;;;;;1.73;1.30;;;0.20;99.90;;;;;;8891894;26;20041;-82
2024/04/11 03:02:13;;;;;;;2.20;1.30;;;0.00;99.90;;;;;;8884631;26;20001;-83
2024/04/11 03:06:18;;;;;;;1.65;0.93;;;0.20;99.90;;;;;;8892989;26;20078;-83
2024/04/11 03:10:18;;;;;;;1.45;0.90;;;0.40;99.90;;;;;;8882640;26;20008;-82
2024/04/11 03:14:26;;;;;;;2.63;1.20;;;0.00;99.90;;;;;;8915013;26;20019;-83
2024/04/11 03:18:30;;;;;;;6.53;1.23;;;-0.10;99.90;;;;;;8897609;26;20001;-83
2024/04/11 03:27:07;;;;;;;3.40;1.20;;;-0.10;99.90;;;;;;8885069;26;20044;-83
2024/04/11 03:31:10;;;;;;;2.00;1.20;;;-0.20;99.90;;;;;;8912299;26;20005;-83
2024/04/11 03:35:11;;;;;;;2.03;1.23;;;-0.30;99.90;;;;;;8887480;26;20053;-84
2024/04/11 03:39:12;;;;;;;1.38;1.05;;;-0.40;99.90;;;;;;8886230;26;20031;-82
2024/04/11 03:43:13;;;;;;;2.17;0.98;;;-0.40;99.90;;;;;;8896039;26;20354;-82
2024/04/11 03:47:14;;;;;;;2.38;1.17;;;-0.50;99.90;;;;;;8897321;26;20673;-83
2024/04/11 03:51:22;;;;;;;3.67;1.15;;;-0.50;99.90;;;;;;8889885;26;20001;-83
2024/04/11 03:55:22;;;;;;;2.42;1.60;;;-0.50;99.90;;;;;;8895338;26;20021;-84
2024/04/11 03:59:25;;;;;;;4.07;0.85;;;-0.50;99.90;;;;;;8880597;26;20427;-83
2024/04/11 04:03:32;;;;;;;1.85;1.13;;;-0.50;99.90;;;;;;8913428;26;20001;-85
2024/04/11 04:07:46;;;;;;;1.25;1.15;;;-0.50;99.90;;;;;;8895191;26;20000;-83
2024/04/11 04:11:47;;;;;;;4.88;1.65;;;-0.20;99.90;;;;;;8904019;26;20000;-81
2024/04/11 04:15:49;;;;;;;1.50;1.08;;;-0.30;99.90;;;;;;8897560;26;20016;-83
2024/04/11 04:19:56;;;;;;;2.15;1.23;;;-0.50;99.90;;;;;;8869218;26;20001;-82
2024/04/11 04:24:02;;;;;;;1.20;1.00;;;-0.60;99.90;;;;;;8886866;26;20688;-82
2024/04/11 04:28:11;;;;;;;1.52;0.98;;;-0.70;99.90;;;;;;8913068;26;20008;-82
2024/04/11 04:32:14;;;;;;;1.40;1.23;;;-0.50;99.90;;;;;;8915466;26;19997;-83
2024/04/11 04:36:43;;;;;;;0.77;0.77;;;-0.10;99.90;;;;;;8888106;26;20019;-83
2024/04/11 04:40:53;;;;;;;1.13;0.83;;;0.00;99.90;;;;;;8869680;26;20003;-83
2024/04/11 04:50:45;;;;;;;2.00;1.35;;;-0.10;99.90;;;;;;8787705;26;20000;-83
2024/04/11 04:55:31;;;;;;;2.40;1.23;;;-0.20;99.90;;;;;;8782335;26;20002;-83
2024/04/11 04:59:32;;;;;;;1.73;1.20;;;-0.10;99.90;;;;;;8658778;26;20002;-83
2024/04/11 05:14:08;;;;;;;1.27;1.00;;;0.10;99.90;;;;;;8612568;27;20016;-83
2024/04/11 05:18:17;;;;;;;3.03;1.33;;;0.60;99.90;;;;;;8689873;27;20006;-83
2024/04/11 05:22:26;;;;;;;3.22;1.13;;;0.50;99.90;;;;;;8776421;26;20010;-84
2024/04/11 05:31:06;;;;;;;2.80;1.33;;;0.60;99.90;;;;;;9070296;21;20006;-83
2024/04/11 05:35:23;;;;;;;2.50;1.13;;;0.70;99.90;;;;;;8777782;26;20002;-83
2024/04/11 06:06:37;;;;;;;3.33;1.77;;;2.50;99.90;;;;;;8782726;26;20024;-82
2024/04/11 06:11:32;;;;;;;5.05;1.83;;;2.80;99.90;;;;;;8791396;26;20084;-83
2024/04/11 06:20:26;;;;;;;4.50;2.72;;;3.30;99.90;;;;;;8796616;21;20020;-83
2024/04/11 06:24:38;;;;;;;5.20;2.75;;;3.80;99.90;;;;;;8783229;26;20009;-83
2024/04/11 06:28:57;;;;;;;;;;;;;;;;;;;;;
2024/04/11 06:34:04;;;;;;;;;;;;;;;;;;;;;
2024/04/11 06:38:46;;;;;;;6.65;3.75;;;4.60;99.90;;;;;;8508250;27;20002;-83
2024/04/11 06:48:57;;;;;;;9.98;3.50;;;5.40;99.90;;;;;;8289704;28;20011;-82
2024/04/11 06:53:31;;;;;;;6.63;3.40;;;5.60;99.90;;;;;;8284589;28;20414;-83
2024/04/11 07:03:40;;;;;;;5.10;3.33;;;7.00;99.90;;;;;;8372691;28;20017;-81
2024/04/11 07:14:11;;;;;;;;;;;;;;;;;;;;;
2024/04/11 07:18:44;;;;;;;6.47;3.83;;;8.00;99.90;;;;;;8593237;27;20004;-83
2024/04/11 09:20:41;;;;;;;2.65;2.20;;;13.80;99.90;;;;;;8621998;27;20492;-83
2024/04/11 11:54:44;;;;;;;1.85;1.65;;;20.10;98.00;;;;;;8563812;27;20005;-85
2024/04/11 11:59:05;;;;;;;2.25;1.67;;;20.20;97.10;;;;;;8496508;27;20636;-84
2024/04/11 12:17:30;;;;;;;2.13;1.85;;;19.90;99.90;;;;;;8984027;22;20005;-85
2024/04/11 12:52:07;;;;;;;3.08;2.08;;;22.90;90.90;;;;;;8910759;22;19996;-86
2024/04/11 12:56:55;;;;;;;2.92;2.15;;;22.80;92.00;;;;;;8538910;27;20486;-84
2024/04/11 13:57:33;;;;;;;3.25;2.20;;;17.60;97.30;;;;;;8644040;22;20004;-84
2024/04/11 15:34:57;;;;;;;4.97;3.00;;;22.00;91.40;;;;;;8659249;27;20011;-85
2024/04/11 16:08:22;;;;;;;6.72;3.30;;;18.10;95.70;;;;;;8684150;22;20078;-86
2024/04/11 17:12:58;;;;;;;4.72;3.05;;;13.70;99.90;;;;;;8609806;27;20067;-83
2024/04/11 17:17:14;;;;;;;4.63;3.28;;;13.30;99.90;;;;;;8578574;27;20405;-84
2024/04/11 17:21:28;;;;;;;5.38;2.97;;;13.10;99.90;;;;;;8593414;27;20022;-84
2024/04/11 17:25:46;;;;;;;4.93;3.50;;;13.00;99.90;;;;;;8570686;27;20465;-84
2024/04/11 17:30:13;;;;;;;7.13;3.50;;;12.90;99.90;;;;;;8579733;27;20032;-84
2024/04/11 17:34:15;;;;;;;4.43;3.45;;;12.50;99.90;;;;;;8578960;27;20580;-84
2024/04/11 17:44:01;;;;;;;5.65;3.42;;;12.30;99.90;;;;;;8601559;27;20031;-83
2024/04/11 19:56:18;;;;;;;6.47;3.28;;;7.30;99.90;;;;;;8445433;27;20001;-83
2024/04/11 20:01:21;;;;;;;;;;;;;;;;;;;;;
2024/04/11 20:41:39;;;;;;;5.85;3.40;;;6.70;99.90;;;;;;8347865;28;20029;-81
2024/04/11 21:50:36;;;;;;;6.43;3.80;;;5.40;99.90;;;;;;8165489;28;20009;-83
2024/04/11 21:55:11;;;;;;;6.50;3.80;;;5.30;99.90;;;;;;8232072;28;20005;-83
2024/04/11 22:05:28;;;;;;;;;;;;;;;;;;;;;
2024/04/11 22:09:27;;;;;;;6.28;3.03;;;4.80;99.90;;;;;;8728156;22;20030;-81
2024/04/11 22:14:08;;;;;;;5.03;2.90;;;5.10;99.90;;;;;;8630179;27;20396;-82
2024/04/11 22:22:31;;;;;;;5.03;3.00;;;5.00;99.90;;;;;;8614810;27;20072;-83
2024/04/11 22:26:34;;;;;;;5.53;2.88;;;4.80;99.90;;;;;;8605381;27;20017;-81
2024/04/11 22:31:34;;;;;;;;;;;;;;;;;;;;;
2024/04/11 22:41:26;;;;;;;6.25;3.10;;;4.60;99.90;;;;;;8578472;27;20409;-82
2024/04/11 22:54:41;;;;;;;6.35;3.58;;;4.10;99.90;;;;;;834938;22;20377;-78
2024/04/11 22:58:47;;;;;;;5.22;3.28;;;4.10;99.90;;;;;;8606429;27;20018;-81
2024/04/11 23:02:51;;;;;;;5.28;3.15;;;4.40;99.90;;;;;;8593045;27;20083;-82
2024/04/11 23:06:55;;;;;;;10.00;3.38;;;4.30;99.90;;;;;;8594594;27;20016;-82
2024/04/11 23:10:57;;;;;;;9.27;2.67;;;4.40;99.90;;;;;;8579420;27;20501;-82
2024/04/11 23:15:10;;;;;;;5.65;3.35;;;4.50;99.90;;;;;;8594915;27;20000;-82
2024/04/11 23:19:25;;;;;;;;;;;;;;;;;;;;;
2024/04/11 23:24:10;;;;;;;5.25;2.95;;;3.90;99.90;;;;;;8611344;27;20005;-82
2024/04/11 23:38:53;;;;;;;5.47;2.63;;;3.50;99.90;;;;;;8445813;27;20567;-83
2024/04/11 23:43:03;;;;;;;4.95;2.70;;;3.40;99.90;;;;;;8441899;27;20681;-81
2024/04/11 23:57:26;;;;;;;6.03;3.40;;;3.50;99.90;;;;;;8342342;27;20017;-83
